createdAt,value
2022-09-03T00:02:48.804Z,2.60
2022-09-03T00:05:42.144Z,2.50
2022-09-03T00:09:07.332Z,2.60
2022-09-03T00:12:04.711Z,2.83
2022-09-03T00:17:52.949Z,2.67
2022-09-03T00:21:03.464Z,2.50
2022-09-03T00:23:56.146Z,3.35
2022-09-03T00:26:42.661Z,2.60
2022-09-03T00:32:23.776Z,2.55
2022-09-03T00:35:07.591Z,2.40
2022-09-03T00:38:06.694Z,2.70
2022-09-03T00:41:16.899Z,2.55
2022-09-03T00:44:24.617Z,2.75
2022-09-03T00:50:33.289Z,2.95
2022-09-03T00:53:30.192Z,2.83
2022-09-03T00:56:42.988Z,2.63
2022-09-03T00:59:41.932Z,2.50
2022-09-03T01:03:04.623Z,2.75
2022-09-03T01:06:17.019Z,2.63
2022-09-03T01:13:12.188Z,2.75
2022-09-03T01:19:55.445Z,2.80
2022-09-03T01:22:52.493Z,2.45
2022-09-03T01:26:43.654Z,3.10
2022-09-03T01:30:18.726Z,2.58
2022-09-03T01:33:09.527Z,2.35
2022-09-03T01:39:10.795Z,2.58
2022-09-03T01:49:56.071Z,2.53
2022-09-03T02:00:15.193Z,2.45
2022-09-03T02:02:49.895Z,2.47
2022-09-03T02:05:44.363Z,2.40
2022-09-03T02:08:54.490Z,2.42
2022-09-03T02:14:31.003Z,2.67
2022-09-03T02:18:22.151Z,2.58
2022-09-03T02:21:26.957Z,2.42
2022-09-03T02:34:20.228Z,2.60
2022-09-03T02:54:49.217Z,2.53
2022-09-03T02:57:45.572Z,3.03
2022-09-03T03:04:01.648Z,2.53
2022-09-03T03:14:19.191Z,2.40
2022-09-03T03:20:58.122Z,2.42
2022-09-03T03:57:31.974Z,2.53
2022-09-03T04:04:28.665Z,2.33
2022-09-03T04:09:24.432Z,2.83
2022-09-03T04:19:29.589Z,3.20
2022-09-03T04:42:44.508Z,2.70
2022-09-03T05:21:50.175Z,3.37
2022-09-03T05:34:46.148Z,4.20
2022-09-03T05:37:35.515Z,4.53
2022-09-03T05:40:28.862Z,4.10
2022-09-03T05:43:26.426Z,3.97
2022-09-03T05:49:08.260Z,5.07
2022-09-03T05:52:05.513Z,5.15
2022-09-03T05:54:47.356Z,5.03
2022-09-03T05:57:52.107Z,4.65
2022-09-03T06:01:19.627Z,5.88
2022-09-03T06:04:27.811Z,5.32
2022-09-03T06:07:19.116Z,5.60
2022-09-03T06:16:24.395Z,6.07
2022-09-03T06:19:22.846Z,5.60
2022-09-03T06:25:35.488Z,6.40
2022-09-03T06:28:32.360Z,5.63
2022-09-03T06:32:25.911Z,5.10
2022-09-03T06:36:03.882Z,5.38
2022-09-03T06:38:44.002Z,5.13
2022-09-03T06:41:54.188Z,4.70
2022-09-03T07:16:23.588Z,4.18
2022-09-03T07:23:45.900Z,3.83
2022-09-03T07:26:20.164Z,3.63
2022-09-03T07:28:49.165Z,3.53
2022-09-03T07:32:13.407Z,3.95
2022-09-03T07:34:40.671Z,4.07
2022-09-03T07:37:08.248Z,4.25
2022-09-03T07:39:35.447Z,3.70
2022-09-03T07:42:02.706Z,3.92
2022-09-03T07:44:31.190Z,3.90
2022-09-03T07:46:58.355Z,3.85
2022-09-03T07:49:25.533Z,3.42
2022-09-03T07:51:54.607Z,2.47
2022-09-03T07:54:23.713Z,2.70
2022-09-03T07:56:50.854Z,2.90
2022-09-03T07:59:18.356Z,3.17
2022-09-03T08:01:45.491Z,3.05
2022-09-03T08:04:12.864Z,3.13
2022-09-03T08:06:40.483Z,2.80
2022-09-03T08:09:13.895Z,2.65
2022-09-03T08:11:43.763Z,2.50
2022-09-03T08:14:13.091Z,2.70
2022-09-03T08:16:42.549Z,2.72
2022-09-03T08:19:11.562Z,2.20
2022-09-03T08:21:42.331Z,2.55
2022-09-03T08:24:11.261Z,2.28
2022-09-03T08:26:41.895Z,3.00
2022-09-03T08:29:09.492Z,3.10
2022-09-03T08:31:38.140Z,2.60
2022-09-03T08:34:07.370Z,2.60
2022-09-03T08:36:36.776Z,3.00
2022-09-03T08:39:10.227Z,2.50
2022-09-03T08:41:44.142Z,2.30
2022-09-03T08:44:31.595Z,2.72
2022-09-03T08:47:06.338Z,2.53
2022-09-03T08:49:55.860Z,2.70
2022-09-03T08:52:26.448Z,3.00
2022-09-03T08:55:11.191Z,2.55
2022-09-03T08:57:45.191Z,2.20
2022-09-03T09:00:13.615Z,2.53
2022-09-03T09:03:02.615Z,2.25
2022-09-03T09:06:00.759Z,2.45
2022-09-03T09:08:42.977Z,2.15
2022-09-03T09:11:29.008Z,2.47
2022-09-03T09:14:13.369Z,2.85
2022-09-03T09:17:16.110Z,1.75
2022-09-03T09:20:10.746Z,2.40
2022-09-03T09:22:47.696Z,2.30
2022-09-03T09:25:22.302Z,2.80
2022-09-03T09:28:00.788Z,2.22
2022-09-03T09:30:30.658Z,2.40
2022-09-03T09:32:58.096Z,2.30
2022-09-03T09:35:25.367Z,2.15
2022-09-03T09:37:55.320Z,2.38
2022-09-03T09:40:33.427Z,2.30
2022-09-03T09:43:10.772Z,2.05
2022-09-03T09:45:43.441Z,2.40
2022-09-03T09:48:16.448Z,2.30
2022-09-03T09:50:43.864Z,2.90
2022-09-03T09:53:15.910Z,1.92
2022-09-03T09:55:51.370Z,2.20
2022-09-03T09:58:24.531Z,2.28
2022-09-03T10:01:03.447Z,1.95
2022-09-03T10:03:38.004Z,2.67
2022-09-03T10:06:28.864Z,2.42
2022-09-03T10:09:16.172Z,2.58
2022-09-03T10:11:52.269Z,2.05
2022-09-03T10:14:27.677Z,1.70
2022-09-03T10:17:05.440Z,2.00
2022-09-03T10:20:15.796Z,1.65
2022-09-03T10:22:57.013Z,1.80
2022-09-03T10:25:44.244Z,1.90
2022-09-03T10:28:13.500Z,1.77
2022-09-03T10:31:08.026Z,2.00
2022-09-03T10:33:42.920Z,1.70
2022-09-03T10:36:22.336Z,1.48
2022-09-03T10:39:01.874Z,1.27
2022-09-03T10:41:38.530Z,1.15
2022-09-03T10:44:30.612Z,1.02
2022-09-03T10:47:38.232Z,1.27
2022-09-03T10:50:16.307Z,1.15
2022-09-03T10:52:56.287Z,1.67
2022-09-03T10:55:39.696Z,1.45
2022-09-03T10:58:32.128Z,1.30
2022-09-03T11:01:23.833Z,1.05
2022-09-03T11:04:14.722Z,0.90
2022-09-03T11:07:07.243Z,1.10
2022-09-03T11:09:51.393Z,1.05
2022-09-03T11:12:29.391Z,1.20
2022-09-03T11:15:12.031Z,1.35
2022-09-03T11:17:51.225Z,1.30
2022-09-03T11:20:26.245Z,1.60
2022-09-03T11:23:01.654Z,1.35
2022-09-03T11:25:57.589Z,1.35
2022-09-03T11:28:45.632Z,1.08
2022-09-03T11:31:16.566Z,1.27
2022-09-03T11:33:51.405Z,1.40
2022-09-03T11:36:39.107Z,1.02
2022-09-03T11:39:33.934Z,1.23
2022-09-03T11:42:12.873Z,1.08
2022-09-03T11:44:51.116Z,1.23
2022-09-03T11:47:24.495Z,1.35
2022-09-03T11:49:53.776Z,1.55
2022-09-03T11:52:29.965Z,0.82
2022-09-03T11:54:57.356Z,0.60
2022-09-03T11:57:30.209Z,1.10
2022-09-03T12:00:18.325Z,1.13
2022-09-03T12:02:59.111Z,0.80
2022-09-03T12:05:38.501Z,1.00
2022-09-03T12:08:23.691Z,0.73
2022-09-03T12:11:00.381Z,0.88
2022-09-03T12:13:28.094Z,0.95
2022-09-03T12:16:19.585Z,0.80
2022-09-03T12:18:53.138Z,0.77
2022-09-03T12:21:21.169Z,0.80
2022-09-03T12:23:50.599Z,0.55
2022-09-03T12:26:24.826Z,0.90
2022-09-03T12:28:55.752Z,1.08
2022-09-03T12:31:25.755Z,0.70
2022-09-03T12:34:01.657Z,0.68
2022-09-03T12:36:44.193Z,0.90
2022-09-03T12:40:04.567Z,1.58
2022-09-03T12:42:17.215Z,1.02
2022-09-03T12:44:44.779Z,0.90
2022-09-03T12:47:38.155Z,0.98
2022-09-03T12:50:19.776Z,0.60
2022-09-03T12:52:56.719Z,0.50
2022-09-03T12:56:01.773Z,0.80
2022-09-03T12:58:56.315Z,0.80
2022-09-03T13:01:32.975Z,0.60
2022-09-03T13:04:17.391Z,0.60
2022-09-03T13:06:56.704Z,0.80
2022-09-03T13:09:27.368Z,0.98
2022-09-03T13:11:55.750Z,0.68
2022-09-03T13:14:23.783Z,1.05
2022-09-03T13:16:59.744Z,0.60
2022-09-03T13:20:04.555Z,0.60
2022-09-03T13:22:48.890Z,0.85
2022-09-03T13:25:26.459Z,0.55
2022-09-03T13:27:56.925Z,0.60
2022-09-03T13:30:48.254Z,0.75
2022-09-03T13:33:33.470Z,0.63
2022-09-03T13:36:14.142Z,0.70
2022-09-03T13:38:52.086Z,0.70
2022-09-03T13:41:39.190Z,0.60
2022-09-03T13:44:36.072Z,0.73
2022-09-03T13:47:12.171Z,0.95
2022-09-03T13:50:10.079Z,1.00
2022-09-03T13:52:49.001Z,1.00
2022-09-03T13:55:26.275Z,1.00
2022-09-03T13:58:18.630Z,0.60
2022-09-03T14:01:06.975Z,0.85
2022-09-03T14:04:02.028Z,0.98
2022-09-03T14:06:55.667Z,1.42
2022-09-03T14:09:49.014Z,1.17
2022-09-03T14:12:24.192Z,0.77
2022-09-03T14:15:01.350Z,1.00
2022-09-03T14:17:42.638Z,1.00
2022-09-03T14:20:28.419Z,0.95
2022-09-03T14:23:28.655Z,0.95
2022-09-03T14:25:56.971Z,1.10
2022-09-03T14:28:27.187Z,1.08
2022-09-03T14:31:30.097Z,0.80
2022-09-03T14:34:06.341Z,0.90
2022-09-03T14:36:50.763Z,0.80
2022-09-03T14:39:41.498Z,0.55
2022-09-03T14:42:29.909Z,0.70
2022-09-03T14:45:18.410Z,0.80
2022-09-03T14:47:58.010Z,0.93
2022-09-03T14:50:34.087Z,1.00
2022-09-03T14:53:39.277Z,0.80
2022-09-03T14:56:28.999Z,1.30
2022-09-03T14:58:58.532Z,1.25
2022-09-03T15:01:38.549Z,0.85
2022-09-03T15:04:12.979Z,0.93
2022-09-03T15:07:02.937Z,1.35
2022-09-03T15:10:05.136Z,0.68
2022-09-03T15:12:40.818Z,0.80
2022-09-03T15:15:18.645Z,0.88
2022-09-03T15:18:10.192Z,1.02
2022-09-03T15:20:52.488Z,1.05
2022-09-03T15:24:00.157Z,0.85
2022-09-03T15:26:51.437Z,1.20
2022-09-03T15:29:48.445Z,0.90
2022-09-03T15:32:57.314Z,1.25
2022-09-03T15:35:50.056Z,1.00
2022-09-03T15:38:32.400Z,1.35
2022-09-03T15:43:32.863Z,1.30
2022-09-03T15:46:46.833Z,1.00
2022-09-03T15:49:44.348Z,0.80
2022-09-03T15:52:25.095Z,1.45
2022-09-03T15:55:11.705Z,1.10
2022-09-03T15:58:08.941Z,0.95
2022-09-03T16:00:48.036Z,1.38
2022-09-03T16:03:23.886Z,1.05
2022-09-03T16:05:57.622Z,0.85
2022-09-03T16:08:30.181Z,0.63
2022-09-03T16:11:08.369Z,0.93
2022-09-03T16:13:45.697Z,0.95
2022-09-03T16:16:23.132Z,0.90
2022-09-03T16:19:10.289Z,1.10
2022-09-03T16:21:51.578Z,1.02
2022-09-03T16:24:43.168Z,1.10
2022-09-03T16:27:23.047Z,1.10
2022-09-03T16:30:31.348Z,0.90
2022-09-03T16:33:23.942Z,1.13
2022-09-03T16:38:46.311Z,1.10
2022-09-03T16:41:24.455Z,1.08
2022-09-03T16:43:54.737Z,0.85
2022-09-03T16:46:44.994Z,1.02
2022-09-03T16:49:53.495Z,1.63
2022-09-03T16:52:53.279Z,3.53
2022-09-03T16:55:26.244Z,2.58
2022-09-03T16:58:14.918Z,1.80
2022-09-03T17:01:13.063Z,1.52
2022-09-03T17:04:14.420Z,1.50
2022-09-03T17:07:06.251Z,1.35
2022-09-03T17:09:58.169Z,1.48
2022-09-03T17:12:31.455Z,1.30
2022-09-03T17:15:35.660Z,1.38
2022-09-03T17:18:19.923Z,2.13
2022-09-03T17:21:16.053Z,1.38
2022-09-03T17:24:13.881Z,1.13
2022-09-03T17:27:05.651Z,1.20
2022-09-03T17:30:00.502Z,1.27
2022-09-03T17:32:33.057Z,1.23
2022-09-03T17:35:10.074Z,1.40
2022-09-03T17:37:44.180Z,1.40
2022-09-03T17:40:37.073Z,1.33
2022-09-03T17:43:23.082Z,1.05
2022-09-03T17:46:28.967Z,1.15
2022-09-03T17:49:00.536Z,1.70
2022-09-03T17:51:37.184Z,1.83
2022-09-03T17:54:26.290Z,1.40
2022-09-03T17:57:31.119Z,1.73
2022-09-03T18:00:08.647Z,1.70
2022-09-03T18:02:51.851Z,1.70
2022-09-03T18:05:42.360Z,1.95
2022-09-03T18:08:50.300Z,2.17
2022-09-03T18:11:40.957Z,1.92
2022-09-03T18:14:20.565Z,1.75
2022-09-03T18:17:19.786Z,2.88
2022-09-03T18:20:11.495Z,2.28
2022-09-03T18:23:09.121Z,2.05
2022-09-03T18:25:58.243Z,1.33
2022-09-03T18:29:01.135Z,1.25
2022-09-03T18:34:33.020Z,2.20
2022-09-03T18:37:19.314Z,2.42
2022-09-03T18:40:06.059Z,2.50
2022-09-03T18:43:18.951Z,2.45
2022-09-03T18:47:58.343Z,2.72
2022-09-03T18:49:47.480Z,2.53
2022-09-03T18:52:42.510Z,2.60
2022-09-03T18:55:37.282Z,2.35
2022-09-03T18:58:35.652Z,2.20
2022-09-03T19:01:35.077Z,2.20
2022-09-03T19:04:43.882Z,2.20
2022-09-03T19:08:12.916Z,1.75
2022-09-03T19:11:11.134Z,1.67
2022-09-03T19:13:59.833Z,1.75
2022-09-03T19:17:37.066Z,1.75
2022-09-03T19:20:50.641Z,2.00
2022-09-03T19:23:39.830Z,1.60
2022-09-03T19:26:57.691Z,1.88
2022-09-03T19:29:58.440Z,1.90
2022-09-03T19:33:13.873Z,2.08
2022-09-03T19:36:16.615Z,2.03
2022-09-03T19:39:22.352Z,1.60
2022-09-03T19:42:29.127Z,2.20
2022-09-03T19:45:45.537Z,2.13
2022-09-03T19:48:36.103Z,2.20
2022-09-03T19:51:49.034Z,2.30
2022-09-03T19:54:38.393Z,2.10
2022-09-03T19:57:25.785Z,1.80
2022-09-03T20:00:12.245Z,1.65
2022-09-03T20:02:59.589Z,1.90
2022-09-03T20:05:46.441Z,2.15
2022-09-03T20:08:36.551Z,2.40
2022-09-03T20:11:06.520Z,1.70
2022-09-03T20:13:59.308Z,2.42
2022-09-03T20:19:26.146Z,2.05
2022-09-03T20:22:09.528Z,1.88
2022-09-03T20:29:23.919Z,2.28
2022-09-03T20:32:18.554Z,2.25
2022-09-03T20:51:13.219Z,2.08
2022-09-03T21:00:20.096Z,2.15
2022-09-03T21:03:47.627Z,2.80
2022-09-03T21:07:22.106Z,2.55
2022-09-03T21:10:56.191Z,2.85
2022-09-03T21:18:34.870Z,2.63
2022-09-03T21:21:40.066Z,2.97
2022-09-03T21:24:35.497Z,2.58
2022-09-03T21:27:08.982Z,2.70
2022-09-03T23:04:03.892Z,3.47
2022-09-03T23:20:28.681Z,3.65
2022-09-03T23:23:26.706Z,3.55
2022-09-03T23:29:21.057Z,3.83
2022-09-03T23:32:14.857Z,3.70
2022-09-03T23:39:40.548Z,3.72
2022-09-03T23:43:02.872Z,3.97
2022-09-03T23:46:18.087Z,4.38
2022-09-03T23:49:13.091Z,4.15
2022-09-03T23:55:31.230Z,4.57
2022-09-03T23:58:26.561Z,4.65
